createdAt,value
2023-03-07T00:02:40.298Z,10.75
2023-03-07T00:22:46.008Z,11.87
2023-03-07T00:42:51.721Z,13.50
2023-03-07T01:02:57.490Z,10.60
2023-03-07T01:23:03.266Z,9.82
2023-03-07T01:43:09.016Z,10.40
2023-03-07T02:03:14.886Z,10.88
2023-03-07T02:23:20.596Z,9.50
2023-03-07T02:43:26.362Z,10.32
2023-03-07T03:03:32.153Z,11.07
2023-03-07T03:23:37.954Z,9.59
2023-03-07T03:43:43.737Z,9.95
2023-03-07T04:03:49.498Z,9.72
2023-03-07T04:23:55.255Z,10.07
2023-03-07T04:44:01.027Z,10.54
2023-03-07T05:04:06.839Z,9.53
2023-03-07T05:24:12.628Z,9.07
2023-03-07T05:44:18.405Z,10.69
2023-03-07T06:04:24.201Z,9.31
2023-03-07T06:24:29.977Z,10.26
2023-03-07T06:44:35.825Z,9.79
2023-03-07T07:04:41.615Z,7.15
2023-03-07T07:24:47.364Z,9.26
2023-03-07T07:44:53.181Z,8.78
2023-03-07T08:04:58.987Z,7.56
2023-03-07T08:25:04.800Z,8.48
2023-03-07T08:45:10.580Z,8.51
2023-03-07T09:05:16.326Z,7.48
2023-03-07T09:25:22.144Z,8.85
2023-03-07T09:45:27.968Z,8.36
2023-03-07T10:05:33.809Z,10.31
2023-03-07T10:25:40.125Z,6.83
2023-03-07T10:45:45.892Z,7.15
2023-03-07T11:05:51.671Z,7.50
2023-03-07T11:25:57.488Z,6.66
2023-03-07T11:46:03.313Z,6.50
2023-03-07T12:06:09.114Z,5.54
2023-03-07T12:26:15.417Z,5.90
2023-03-07T12:46:21.259Z,5.10
2023-03-07T13:06:27.014Z,5.22
2023-03-07T13:26:32.769Z,6.83
2023-03-07T13:46:38.529Z,5.70
2023-03-07T14:06:44.753Z,6.18
2023-03-07T14:26:50.535Z,6.61
2023-03-07T14:46:56.343Z,6.41
2023-03-07T15:07:02.337Z,6.31
2023-03-07T15:27:08.150Z,7.05
2023-03-07T15:47:13.986Z,7.01
2023-03-07T16:07:19.770Z,5.90
2023-03-07T16:27:25.503Z,5.05
2023-03-07T16:47:31.267Z,5.88
2023-03-07T17:07:37.150Z,6.12
2023-03-07T17:27:42.926Z,5.32
2023-03-07T17:47:48.689Z,4.64
2023-03-07T18:07:54.454Z,7.48
2023-03-07T18:28:00.283Z,7.89
2023-03-07T18:48:06.043Z,4.51
2023-03-07T19:08:11.827Z,5.64
2023-03-07T19:28:17.681Z,4.28
2023-03-07T19:48:23.510Z,5.72
2023-03-07T20:08:29.315Z,4.46
2023-03-07T20:28:35.144Z,6.81
2023-03-07T20:48:42.487Z,5.03
2023-03-07T21:08:48.324Z,5.86
2023-03-07T21:28:54.181Z,7.69
2023-03-07T21:49:00.042Z,4.83
2023-03-07T22:09:05.891Z,7.18
2023-03-07T22:29:11.742Z,6.66
2023-03-07T22:49:17.669Z,5.79
2023-03-07T23:09:23.607Z,7.02
2023-03-07T23:29:29.472Z,6.20
2023-03-07T23:49:35.411Z,7.21
